West Swanzey, New Hampshire
Current Conditions -  °F | °C
As of 4:55 AM on Sunday 21 Dec 2014 (Local Time) from KEEN Reporting Station
Overcast Overcast  
Wind Chill: 25°   Ceiling: 3700
Heat Index: 30°   Visibility: 10mi
Dew Point: 27°   Wind: 5mph
Humidity: 86%   Direction: 350°N
Pressure: 30.28"   Gusts: NA
Location:  42.87°N, 72.32°W
Report Text: KEEN 210955Z AUTO 35004KT 10SM OVC037 M01/M03 A3028 RMK AO1
Loading
Personal Weather Stations






























Interactive Weather Map New forecast layout! Learn more

10-Day Weather Forecast

Advertisements
Track Severe Weather on mobile